Summerville, Illinois
Current Conditions -  °F | °C
As of 1:55 AM on Wednesday 22 Oct 2014 (Local Time) from KALN Reporting Station
Clear Clear  
Wind Chill: 41°   Ceiling: Unl
Heat Index: 44°   Visibility: 10mi
Dew Point: 40°   Wind: 5mph
Humidity: 85%   Direction: 60°ENE
Pressure: 30.24"   Gusts: NA
Location:  39.2057°N, 90.1607°W
Report Text: KALN 220655Z AUTO 06004KT 10SM CLR 07/04 A3024 RMK AO2 T00660042
Loading
Personal Weather Stations






























Interactive Weather Map
Tropical Storm Tracking
New forecast layout! Learn more

10-Day Weather Forecast

Advertisements
Track Severe Weather on mobile